createdAt,value
2023-03-22T00:02:39.582Z,32.65
2023-03-22T00:05:12.179Z,24.58
2023-03-22T00:07:48.161Z,32.47
2023-03-22T00:10:18.166Z,27.20
2023-03-22T00:12:45.473Z,20.75
2023-03-22T00:15:25.135Z,22.50
2023-03-22T00:17:56.665Z,16.08
2023-03-22T00:20:37.271Z,28.00
2023-03-22T00:23:41.341Z,13.75
2023-03-22T00:26:11.589Z,18.23
2023-03-22T00:28:52.379Z,21.27
2023-03-22T00:31:29.046Z,68.00
2023-03-22T00:36:46.122Z,43.67
2023-03-22T00:39:17.783Z,35.63
2023-03-22T00:41:48.129Z,50.83
2023-03-22T00:44:21.767Z,42.17
2023-03-22T00:47:01.350Z,26.60
2023-03-22T00:52:24.389Z,32.78
2023-03-22T00:54:51.788Z,23.40
2023-03-22T00:57:28.502Z,35.58
2023-03-22T00:59:59.048Z,29.52
2023-03-22T01:02:32.757Z,32.33
2023-03-22T01:05:01.351Z,32.42
2023-03-22T01:07:46.079Z,29.15
2023-03-22T01:10:13.160Z,25.40
2023-03-22T01:12:40.457Z,27.42
2023-03-22T01:15:13.238Z,20.75
2023-03-22T01:18:02.580Z,21.40
2023-03-22T01:20:53.633Z,21.02
2023-03-22T01:23:43.953Z,20.13
2023-03-22T01:26:24.986Z,20.83
2023-03-22T01:29:00.141Z,21.20
2023-03-22T01:31:36.283Z,17.73
2023-03-22T01:34:09.878Z,19.33
2023-03-22T01:37:02.759Z,17.33
2023-03-22T01:42:29.476Z,15.73
2023-03-22T01:46:10.588Z,17.40
2023-03-22T01:49:16.559Z,14.27
2023-03-22T01:51:46.113Z,13.75
2023-03-22T01:54:26.489Z,14.98
2023-03-22T01:56:56.395Z,12.43
2023-03-22T01:59:26.264Z,13.35
2023-03-22T02:01:53.183Z,12.07
2023-03-22T02:04:38.585Z,15.40
2023-03-22T02:07:10.478Z,17.73
2023-03-22T02:09:43.121Z,16.08
2023-03-22T02:12:34.444Z,12.20
2023-03-22T02:15:53.639Z,12.95
2023-03-22T02:19:14.438Z,16.30
2023-03-22T02:22:00.001Z,20.30
2023-03-22T02:24:48.334Z,13.48
2023-03-22T02:27:55.446Z,15.13
2023-03-22T02:30:44.095Z,12.48
2023-03-22T02:33:48.337Z,17.85
2023-03-22T02:36:58.048Z,15.60
2023-03-22T02:40:23.915Z,11.35
2023-03-22T02:43:12.609Z,12.85
2023-03-22T02:46:15.702Z,13.73
2023-03-22T02:49:15.552Z,14.68
2023-03-22T02:52:07.965Z,13.07
2023-03-22T02:55:10.864Z,12.90
2023-03-22T02:57:56.819Z,12.15
2023-03-22T03:03:18.928Z,14.15
2023-03-22T03:05:50.212Z,12.35
2023-03-22T03:08:18.321Z,13.00
2023-03-22T03:10:46.521Z,14.68
2023-03-22T03:13:21.035Z,14.73
2023-03-22T03:20:02.492Z,13.68
2023-03-22T03:22:57.665Z,14.00
2023-03-22T03:25:51.871Z,9.00
2023-03-22T03:32:28.809Z,12.80
2023-03-22T03:35:06.935Z,9.68
2023-03-22T03:37:47.898Z,14.55
2023-03-22T03:40:28.953Z,11.20
2023-03-22T03:45:58.636Z,9.10
2023-03-22T03:48:33.841Z,12.60
2023-03-22T03:51:06.448Z,10.40
2023-03-22T03:53:36.467Z,10.43
2023-03-22T03:56:14.111Z,15.93
2023-03-22T03:58:46.625Z,12.75
2023-03-22T04:03:44.719Z,12.88
2023-03-22T04:06:11.438Z,13.63
2023-03-22T04:08:38.146Z,11.77
2023-03-22T04:11:13.806Z,11.27
2023-03-22T04:13:40.797Z,12.45
2023-03-22T04:16:07.802Z,13.38
2023-03-22T04:18:34.468Z,10.43
2023-03-22T04:21:01.353Z,10.73
2023-03-22T04:23:28.152Z,14.63
2023-03-22T04:26:15.029Z,11.40
2023-03-22T04:29:24.738Z,10.50
2023-03-22T04:32:09.533Z,16.10
2023-03-22T04:37:17.318Z,13.65
2023-03-22T04:39:55.929Z,12.07
2023-03-22T04:45:04.214Z,11.48
2023-03-22T04:47:33.831Z,16.38
2023-03-22T04:50:00.590Z,14.00
2023-03-22T04:55:18.571Z,16.20
2023-03-22T04:57:57.510Z,14.43
2023-03-22T05:00:48.911Z,12.15
2023-03-22T05:03:26.157Z,14.82
2023-03-22T05:06:01.274Z,18.95
2023-03-22T05:08:36.149Z,15.27
2023-03-22T05:11:30.772Z,14.25
2023-03-22T05:14:10.169Z,15.50
2023-03-22T05:16:40.694Z,15.25
2023-03-22T05:19:32.512Z,12.65
2023-03-22T05:22:31.389Z,16.67
2023-03-22T05:25:07.753Z,10.50
2023-03-22T05:27:41.526Z,13.57
2023-03-22T05:30:15.651Z,12.85
2023-03-22T05:32:47.498Z,13.57
2023-03-22T05:35:30.889Z,17.05
2023-03-22T05:38:13.312Z,12.52
2023-03-22T05:40:44.494Z,14.18
2023-03-22T05:43:22.190Z,16.23
2023-03-22T05:45:53.228Z,24.50
2023-03-22T05:48:43.253Z,16.38
2023-03-22T05:51:19.864Z,20.02
2023-03-22T05:53:55.564Z,19.75
2023-03-22T05:56:25.830Z,18.42
2023-03-22T06:01:47.117Z,19.15
2023-03-22T06:04:13.803Z,19.15
2023-03-22T06:06:42.031Z,21.65
2023-03-22T06:09:16.888Z,18.00
2023-03-22T06:12:01.258Z,20.48
2023-03-22T06:14:30.616Z,17.65
2023-03-22T06:16:57.352Z,17.52
2023-03-22T06:19:27.177Z,15.68
2023-03-22T06:21:56.264Z,21.35
2023-03-22T06:24:34.885Z,16.08
2023-03-22T06:27:01.674Z,15.68
2023-03-22T06:29:33.912Z,19.85
2023-03-22T06:32:05.394Z,24.27
2023-03-22T06:34:58.446Z,25.95
2023-03-22T06:37:25.968Z,20.77
2023-03-22T06:39:52.790Z,15.85
2023-03-22T06:42:23.960Z,21.70
2023-03-22T06:44:53.760Z,14.45
2023-03-22T06:47:34.718Z,18.67
2023-03-22T06:53:32.419Z,15.65
2023-03-22T06:56:05.506Z,12.15
2023-03-22T06:58:39.976Z,15.48
2023-03-22T07:01:19.952Z,18.50
2023-03-22T07:03:48.892Z,20.13
2023-03-22T07:06:17.231Z,19.50
2023-03-22T07:08:44.415Z,25.95
2023-03-22T07:11:11.287Z,16.83
2023-03-22T07:13:38.018Z,18.40
2023-03-22T07:16:43.513Z,19.85
2023-03-22T07:19:12.897Z,31.10
2023-03-22T07:21:47.163Z,27.23
2023-03-22T07:24:14.021Z,22.02
2023-03-22T07:26:59.014Z,17.08
2023-03-22T07:29:39.102Z,20.88
2023-03-22T07:32:20.152Z,17.00
2023-03-22T07:35:04.203Z,17.63
2023-03-22T07:37:37.007Z,17.13
2023-03-22T07:40:17.732Z,15.98
2023-03-22T07:42:51.408Z,12.82
2023-03-22T07:45:23.305Z,12.02
2023-03-22T07:47:56.400Z,12.55
2023-03-22T07:50:23.373Z,12.65
2023-03-22T07:52:50.245Z,12.27
2023-03-22T07:55:31.670Z,16.40
2023-03-22T07:58:01.872Z,7.78
2023-03-22T08:00:29.649Z,10.82
2023-03-22T08:03:07.209Z,8.20
2023-03-22T08:05:46.517Z,6.20
2023-03-22T08:08:13.836Z,10.77
2023-03-22T08:10:43.638Z,9.95
2023-03-22T08:13:13.584Z,9.68
2023-03-22T08:16:19.831Z,11.60
2023-03-22T08:19:09.899Z,12.73
2023-03-22T08:21:52.723Z,9.07
2023-03-22T08:27:08.007Z,10.18
2023-03-22T08:29:56.061Z,14.68
2023-03-22T08:32:36.857Z,15.65
2023-03-22T08:35:14.993Z,8.63
2023-03-22T08:37:46.592Z,15.23
2023-03-22T08:40:18.034Z,11.90
2023-03-22T08:42:52.991Z,11.63
2023-03-22T08:45:34.356Z,8.57
2023-03-22T08:48:04.192Z,8.02
2023-03-22T08:50:39.913Z,7.25
2023-03-22T08:53:06.887Z,8.88
2023-03-22T08:55:47.483Z,11.75
2023-03-22T08:58:52.929Z,7.22
2023-03-22T09:01:30.020Z,7.68
2023-03-22T09:04:04.104Z,13.38
2023-03-22T09:06:50.024Z,6.93
2023-03-22T09:09:23.512Z,10.30
2023-03-22T09:11:50.494Z,8.30
2023-03-22T09:14:17.846Z,7.65
2023-03-22T09:16:44.564Z,6.68
2023-03-22T09:19:17.339Z,11.18
2023-03-22T09:21:53.859Z,6.35
2023-03-22T09:24:35.043Z,9.27
2023-03-22T09:27:09.094Z,7.13
2023-03-22T09:30:08.996Z,6.60
2023-03-22T09:32:49.481Z,9.90
2023-03-22T09:35:19.174Z,11.98
2023-03-22T09:37:48.345Z,9.68
2023-03-22T09:40:22.137Z,11.48
2023-03-22T09:42:57.029Z,10.27
2023-03-22T09:45:43.425Z,9.93
2023-03-22T09:48:48.265Z,13.50
2023-03-22T09:51:43.491Z,16.67
2023-03-22T09:54:39.915Z,8.45
2023-03-22T09:57:43.574Z,13.95
2023-03-22T10:00:24.171Z,14.98
2023-03-22T10:03:05.590Z,13.75
2023-03-22T10:06:16.859Z,13.60
2023-03-22T10:08:55.463Z,10.52
2023-03-22T10:11:59.145Z,11.55
2023-03-22T10:14:48.187Z,8.15
2023-03-22T10:17:25.454Z,10.52
2023-03-22T10:20:06.358Z,10.38
2023-03-22T10:23:05.515Z,18.08
2023-03-22T10:28:39.868Z,8.70
2023-03-22T10:31:24.649Z,16.92
2023-03-22T10:33:55.658Z,12.35
2023-03-22T10:36:31.928Z,10.82
2023-03-22T10:39:19.042Z,9.00
2023-03-22T10:41:51.150Z,10.00
2023-03-22T10:44:40.170Z,17.38
2023-03-22T10:47:13.493Z,13.85
2023-03-22T10:50:07.419Z,17.42
2023-03-22T10:53:06.200Z,12.50
2023-03-22T10:55:33.173Z,11.20
2023-03-22T10:58:40.443Z,18.73
2023-03-22T11:04:18.803Z,9.43
2023-03-22T11:06:56.251Z,9.30
2023-03-22T11:09:28.793Z,11.20
2023-03-22T11:12:03.169Z,10.30
2023-03-22T11:14:54.948Z,10.48
2023-03-22T11:17:26.894Z,9.77
2023-03-22T11:20:07.654Z,9.63
2023-03-22T11:22:38.713Z,10.07
2023-03-22T11:25:22.663Z,13.48
2023-03-22T11:28:23.350Z,9.13
2023-03-22T11:31:20.760Z,8.65
2023-03-22T11:34:02.820Z,8.50
2023-03-22T11:36:37.620Z,8.93
2023-03-22T11:39:08.325Z,8.68
2023-03-22T11:41:54.466Z,9.27
2023-03-22T11:44:36.652Z,12.45
2023-03-22T11:47:11.343Z,10.02
2023-03-22T11:49:50.710Z,10.32
2023-03-22T11:52:30.245Z,8.98
2023-03-22T11:55:02.890Z,8.60
2023-03-22T11:57:36.667Z,11.38
2023-03-22T12:00:40.889Z,8.88
2023-03-22T12:03:18.896Z,9.48
2023-03-22T12:05:50.022Z,7.93
2023-03-22T12:08:24.282Z,8.23
2023-03-22T12:11:16.284Z,9.35
2023-03-22T12:14:14.698Z,8.48
2023-03-22T12:16:51.249Z,7.82
2023-03-22T12:19:38.880Z,7.78
2023-03-22T12:22:27.616Z,8.35
2023-03-22T12:24:59.030Z,4.47
2023-03-22T12:27:37.795Z,8.88
2023-03-22T12:30:28.625Z,7.30
2023-03-22T12:33:13.264Z,6.20
2023-03-22T12:35:44.828Z,7.75
2023-03-22T12:42:19.773Z,6.75
2023-03-22T12:45:15.885Z,11.10
2023-03-22T12:48:11.638Z,5.53
2023-03-22T12:50:56.332Z,7.07
2023-03-22T12:53:51.601Z,6.15
2023-03-22T12:56:38.341Z,6.28
2023-03-22T12:59:33.219Z,6.70
2023-03-22T13:02:15.745Z,7.07
2023-03-22T13:05:09.795Z,7.10
2023-03-22T13:07:57.307Z,7.47
2023-03-22T13:10:45.695Z,8.95
2023-03-22T13:13:34.724Z,7.38
2023-03-22T13:16:17.574Z,7.03
2023-03-22T13:19:22.578Z,5.65
2023-03-22T13:22:19.208Z,6.88
2023-03-22T13:25:19.964Z,7.43
2023-03-22T13:28:04.929Z,5.63
2023-03-22T13:30:58.066Z,6.82
2023-03-22T13:34:09.133Z,5.85
2023-03-22T13:36:37.578Z,7.50
2023-03-22T13:39:23.089Z,5.97
2023-03-22T13:42:03.874Z,5.75
2023-03-22T13:44:37.363Z,5.82
2023-03-22T13:47:30.382Z,5.97
2023-03-22T13:50:29.223Z,5.40
2023-03-22T13:53:09.214Z,7.07
2023-03-22T13:55:54.451Z,4.93
2023-03-22T13:58:33.166Z,6.05
2023-03-22T14:01:05.033Z,5.32
2023-03-22T14:03:39.396Z,8.65
2023-03-22T14:06:32.481Z,6.82
2023-03-22T14:09:45.611Z,4.90
2023-03-22T14:15:24.691Z,8.45
2023-03-22T14:18:04.317Z,9.40
2023-03-22T14:20:41.789Z,8.63
2023-03-22T14:54:00.945Z,6.60
2023-03-22T14:57:02.952Z,7.70
2023-03-22T14:59:37.813Z,6.30
2023-03-22T15:02:34.508Z,5.97
2023-03-22T15:05:23.622Z,5.70
2023-03-22T15:08:21.298Z,7.75
2023-03-22T15:11:20.452Z,8.43
2023-03-22T15:13:52.223Z,4.80
2023-03-22T15:16:24.428Z,5.70
2023-03-22T15:19:17.545Z,6.25
2023-03-22T15:21:47.900Z,5.47
2023-03-22T15:24:38.867Z,5.85
2023-03-22T15:27:24.068Z,6.88
2023-03-22T15:29:58.606Z,4.63
2023-03-22T15:32:29.841Z,4.70
2023-03-22T15:35:11.617Z,5.05
2023-03-22T15:37:47.874Z,4.88
2023-03-22T15:40:42.190Z,6.47
2023-03-22T15:43:17.226Z,4.60
2023-03-22T15:46:14.753Z,4.78
2023-03-22T15:49:51.835Z,5.82
2023-03-22T15:52:40.406Z,4.35
2023-03-22T15:55:19.547Z,5.25
2023-03-22T15:58:04.335Z,4.38
2023-03-22T16:00:55.624Z,6.32
2023-03-22T16:03:55.044Z,5.38
2023-03-22T16:06:47.856Z,5.03
2023-03-22T16:12:00.923Z,4.25
2023-03-22T16:14:28.396Z,4.72
2023-03-22T16:16:55.419Z,4.18
2023-03-22T16:19:28.460Z,4.57
2023-03-22T16:22:31.667Z,4.85
2023-03-22T16:25:01.044Z,3.58
2023-03-22T16:27:28.557Z,3.60
2023-03-22T16:29:55.446Z,4.88
2023-03-22T16:32:28.115Z,4.35
2023-03-22T16:35:00.843Z,3.85
2023-03-22T16:37:42.600Z,4.05
2023-03-22T16:40:28.272Z,5.28
2023-03-22T16:42:56.814Z,9.20
2023-03-22T16:45:47.375Z,5.28
2023-03-22T16:48:22.451Z,8.13
2023-03-22T16:50:58.464Z,7.78
2023-03-22T16:53:40.435Z,9.60
2023-03-22T16:56:22.171Z,8.02
2023-03-22T16:58:50.123Z,6.72
2023-03-22T17:01:29.301Z,6.82
2023-03-22T17:04:10.198Z,3.13
2023-03-22T17:06:57.334Z,6.78
2023-03-22T17:09:28.089Z,6.47
2023-03-22T17:11:56.388Z,12.80
2023-03-22T17:14:26.038Z,10.18
2023-03-22T17:16:59.374Z,5.20
2023-03-22T17:19:26.542Z,5.18
2023-03-22T17:21:59.523Z,3.30
2023-03-22T17:24:31.639Z,5.47
2023-03-22T17:27:00.003Z,5.55
2023-03-22T17:29:41.638Z,4.32
2023-03-22T17:33:01.572Z,4.30
2023-03-22T17:35:38.406Z,6.85
2023-03-22T17:38:33.261Z,6.53
2023-03-22T17:41:16.018Z,4.70
2023-03-22T17:43:54.594Z,4.35
2023-03-22T17:47:03.946Z,4.90
2023-03-22T17:49:28.452Z,5.15
2023-03-22T17:51:55.747Z,5.97
2023-03-22T17:59:50.735Z,4.35
2023-03-22T18:02:39.153Z,5.82
2023-03-22T18:05:17.444Z,5.35
2023-03-22T18:08:13.330Z,3.95
2023-03-22T18:10:39.520Z,3.25
2023-03-22T18:13:10.304Z,5.25
2023-03-22T18:15:42.185Z,5.93
2023-03-22T18:18:24.867Z,6.30
2023-03-22T18:20:59.604Z,4.35
2023-03-22T18:23:34.623Z,8.68
2023-03-22T18:26:29.437Z,7.05
2023-03-22T18:29:03.015Z,4.25
2023-03-22T18:31:36.634Z,5.13
2023-03-22T18:34:24.519Z,4.75
2023-03-22T18:37:02.279Z,3.90
2023-03-22T18:45:17.402Z,7.45
2023-03-22T18:47:55.651Z,12.30
2023-03-22T18:50:27.498Z,6.13
2023-03-22T18:53:17.896Z,13.10
2023-03-22T18:58:48.932Z,7.53
2023-03-22T19:01:16.051Z,7.63
2023-03-22T19:03:43.041Z,11.00
2023-03-22T19:06:18.587Z,9.95
2023-03-22T19:08:49.311Z,6.53
2023-03-22T19:11:23.842Z,12.38
2023-03-22T19:14:49.088Z,9.90
2023-03-22T19:16:56.604Z,13.60
2023-03-22T19:19:41.159Z,7.45
2023-03-22T19:22:34.050Z,17.10
2023-03-22T19:25:08.251Z,14.38
2023-03-22T19:27:37.173Z,8.52
2023-03-22T19:30:06.943Z,16.20
2023-03-22T19:32:39.076Z,11.05
2023-03-22T19:35:17.342Z,8.98
2023-03-22T19:37:45.010Z,16.70
2023-03-22T19:43:05.042Z,10.10
2023-03-22T19:45:35.064Z,16.17
2023-03-22T19:48:08.405Z,18.98
2023-03-22T19:50:39.443Z,15.80
2023-03-22T19:53:44.325Z,12.98
2023-03-22T19:56:08.977Z,19.17
2023-03-22T19:58:38.049Z,15.25
2023-03-22T20:01:11.986Z,14.30
2023-03-22T20:03:41.100Z,18.52
2023-03-22T20:06:20.233Z,19.70
2023-03-22T20:08:57.951Z,15.57
2023-03-22T20:11:34.953Z,18.23
2023-03-22T20:14:08.937Z,19.95
2023-03-22T20:16:39.688Z,16.73
2023-03-22T20:19:06.709Z,17.02
2023-03-22T20:21:38.880Z,15.85
2023-03-22T20:24:53.074Z,15.38
2023-03-22T20:27:24.036Z,17.90
2023-03-22T20:29:53.846Z,15.05
2023-03-22T20:32:22.087Z,16.75
2023-03-22T20:34:50.414Z,15.90
2023-03-22T20:37:23.756Z,14.27
2023-03-22T20:40:01.725Z,11.73
2023-03-22T20:42:37.359Z,10.90
2023-03-22T20:45:12.976Z,17.17
2023-03-22T20:47:52.841Z,17.27
2023-03-22T20:50:26.269Z,14.43
2023-03-22T20:53:22.970Z,13.05
2023-03-22T20:56:01.071Z,12.05
2023-03-22T20:58:38.187Z,12.43
2023-03-22T21:01:31.067Z,12.30
2023-03-22T21:04:02.743Z,16.88
2023-03-22T21:06:33.569Z,11.35
2023-03-22T21:09:20.741Z,16.67
2023-03-22T21:12:36.402Z,8.23
2023-03-22T21:15:18.596Z,10.07
2023-03-22T21:17:57.270Z,15.77
2023-03-22T21:20:36.940Z,16.83
2023-03-22T21:23:07.674Z,17.48
2023-03-22T21:28:32.628Z,21.60
2023-03-22T21:31:00.542Z,14.38
2023-03-22T21:33:27.401Z,15.75
2023-03-22T21:35:54.957Z,19.83
2023-03-22T21:38:24.962Z,14.45
2023-03-22T21:41:01.539Z,16.00
2023-03-22T21:43:34.388Z,21.45
2023-03-22T21:49:25.039Z,13.77
2023-03-22T21:52:08.565Z,14.40
2023-03-22T21:54:48.534Z,14.85
2023-03-22T21:57:21.483Z,16.80
2023-03-22T22:00:06.473Z,15.50
2023-03-22T22:02:36.607Z,14.02
2023-03-22T22:05:06.720Z,11.10
2023-03-22T22:07:33.814Z,16.40
2023-03-22T22:10:14.646Z,15.23
2023-03-22T22:12:42.470Z,14.82
2023-03-22T22:15:24.706Z,13.55
2023-03-22T22:18:37.876Z,16.23
2023-03-22T22:21:16.206Z,16.23
2023-03-22T22:23:52.316Z,12.35
2023-03-22T22:26:23.361Z,10.38
2023-03-22T22:29:05.522Z,7.40
2023-03-22T22:31:33.559Z,7.50
2023-03-22T22:34:11.162Z,11.60
2023-03-22T22:36:51.752Z,9.18
2023-03-22T22:39:30.044Z,9.00
2023-03-22T22:41:56.917Z,8.05
2023-03-22T22:44:24.181Z,6.00
2023-03-22T22:46:51.150Z,8.38
2023-03-22T22:49:30.587Z,8.20
2023-03-22T22:52:16.771Z,8.05
2023-03-22T22:55:05.838Z,9.05
2023-03-22T22:57:38.313Z,8.85
2023-03-22T23:02:55.058Z,8.52
2023-03-22T23:05:31.927Z,8.88
2023-03-22T23:08:16.056Z,14.32
2023-03-22T23:10:57.626Z,11.77
2023-03-22T23:13:30.388Z,14.07
2023-03-22T23:16:16.652Z,15.82
2023-03-22T23:18:54.440Z,14.52
2023-03-22T23:21:34.243Z,13.52
2023-03-22T23:24:03.047Z,18.92
2023-03-22T23:26:41.699Z,18.25
2023-03-22T23:29:27.690Z,12.20
2023-03-22T23:31:54.539Z,15.38
2023-03-22T23:34:31.073Z,14.90
2023-03-22T23:37:00.756Z,16.70
2023-03-22T23:39:54.759Z,14.13
2023-03-22T23:45:03.716Z,11.65
2023-03-22T23:47:33.714Z,16.00
2023-03-22T23:50:10.441Z,15.57
2023-03-22T23:52:46.852Z,15.63
2023-03-22T23:55:13.953Z,15.73
2023-03-22T23:58:02.633Z,18.52
